sensor_id;sensor_type;location;lat;lon;timestamp;pressure;altitude;pressure_sealevel;temperature;humidity
39209;BME280;24929;51.982;4.664;2023-04-30T00:02:19;77884.47;;;-143.36;nan
39209;BME280;24929;51.982;4.664;2023-04-30T00:04:44;77884.47;;;-143.36;nan
39209;BME280;24929;51.982;4.664;2023-04-30T00:07:10;77898.50;;;-143.36;nan
39209;BME280;24929;51.982;4.664;2023-04-30T00:09:36;77892.50;;;-143.36;nan
39209;BME280;24929;51.982;4.664;2023-04-30T00:12:01;77906.53;;;-143.36;nan
39209;BME280;24929;51.982;4.664;2023-04-30T00:14:26;77888.47;;;-143.36;nan
39209;BME280;24929;51.982;4.664;2023-04-30T00:16:52;77878.44;;;-143.36;nan
39209;BME280;24929;51.982;4.664;2023-04-30T00:19:17;77878.44;;;-143.36;nan
39209;BME280;24929;51.982;4.664;2023-04-30T00:21:42;77872.41;;;-143.36;nan
39209;BME280;24929;51.982;4.664;2023-04-30T00:24:08;77874.41;;;-143.36;nan
39209;BME280;24929;51.982;4.664;2023-04-30T00:26:33;77880.44;;;-143.36;nan
39209;BME280;24929;51.982;4.664;2023-04-30T00:28:58;77856.34;;;-143.36;nan
39209;BME280;24929;51.982;4.664;2023-04-30T00:31:23;77868.41;;;-143.36;nan
39209;BME280;24929;51.982;4.664;2023-04-30T00:33:49;77870.41;;;-143.36;nan
39209;BME280;24929;51.982;4.664;2023-04-30T00:36:14;77904.53;;;-143.36;nan
39209;BME280;24929;51.982;4.664;2023-04-30T00:38:40;77928.63;;;-143.36;nan
39209;BME280;24929;51.982;4.664;2023-04-30T00:41:05;77908.56;;;-143.36;nan
39209;BME280;24929;51.982;4.664;2023-04-30T00:43:30;77904.53;;;-143.36;nan
39209;BME280;24929;51.982;4.664;2023-04-30T00:45:56;77930.63;;;-143.36;nan
39209;BME280;24929;51.982;4.664;2023-04-30T00:48:23;77934.66;;;-143.36;nan
39209;BME280;24929;51.982;4.664;2023-04-30T00:50:48;77934.66;;;-143.36;nan
39209;BME280;24929;51.982;4.664;2023-04-30T00:53:14;77920.59;;;-143.36;nan
39209;BME280;24929;51.982;4.664;2023-04-30T00:55:41;77936.66;;;-143.36;nan
39209;BME280;24929;51.982;4.664;2023-04-30T00:58:08;77946.69;;;-143.36;nan
39209;BME280;24929;51.982;4.664;2023-04-30T01:00:33;77940.66;;;-143.36;nan
39209;BME280;24929;51.982;4.664;2023-04-30T01:02:59;77948.69;;;-143.36;nan
39209;BME280;24929;51.982;4.664;2023-04-30T01:05:24;77972.78;;;-143.36;nan
39209;BME280;24929;51.982;4.664;2023-04-30T01:07:50;77970.78;;;-143.36;nan
39209;BME280;24929;51.982;4.664;2023-04-30T01:10:17;77928.63;;;-143.36;nan
39209;BME280;24929;51.982;4.664;2023-04-30T01:15:29;77900.53;;;-143.36;nan
39209;BME280;24929;51.982;4.664;2023-04-30T01:18:07;77914.56;;;-143.36;nan
39209;BME280;24929;51.982;4.664;2023-04-30T01:20:38;77936.66;;;-143.36;nan
39209;BME280;24929;51.982;4.664;2023-04-30T01:23:54;77898.50;;;-143.36;nan
39209;BME280;24929;51.982;4.664;2023-04-30T01:26:14;77944.69;;;-143.36;nan
39209;BME280;24929;51.982;4.664;2023-04-30T01:28:45;77916.56;;;-143.36;nan
39209;BME280;24929;51.982;4.664;2023-04-30T01:31:16;77940.66;;;-143.36;nan
39209;BME280;24929;51.982;4.664;2023-04-30T01:33:42;77972.78;;;-143.36;nan
39209;BME280;24929;51.982;4.664;2023-04-30T01:36:33;77916.56;;;-143.36;nan
39209;BME280;24929;51.982;4.664;2023-04-30T01:39:18;77924.59;;;-143.36;nan
39209;BME280;24929;51.982;4.664;2023-04-30T01:44:44;77972.78;;;-143.36;nan
39209;BME280;24929;51.982;4.664;2023-04-30T01:54:54;77934.66;;;-143.36;nan
39209;BME280;24929;51.982;4.664;2023-04-30T01:57:28;77936.66;;;-143.36;nan
39209;BME280;24929;51.982;4.664;2023-04-30T01:59:56;77980.81;;;-143.36;nan
39209;BME280;24929;51.982;4.664;2023-04-30T02:02:22;77964.75;;;-143.36;nan
39209;BME280;24929;51.982;4.664;2023-04-30T02:04:47;77976.81;;;-143.36;nan
39209;BME280;24929;51.982;4.664;2023-04-30T02:07:19;77944.69;;;-143.36;nan
39209;BME280;24929;51.982;4.664;2023-04-30T02:09:51;77978.81;;;-143.36;nan
39209;BME280;24929;51.982;4.664;2023-04-30T02:12:16;77972.78;;;-143.36;nan
39209;BME280;24929;51.982;4.664;2023-04-30T02:14:42;77974.78;;;-143.36;nan
39209;BME280;24929;51.982;4.664;2023-04-30T02:17:07;77988.84;;;-143.36;nan
39209;BME280;24929;51.982;4.664;2023-04-30T02:19:32;77984.84;;;-143.36;nan
39209;BME280;24929;51.982;4.664;2023-04-30T02:21:57;78012.94;;;-143.36;nan
39209;BME280;24929;51.982;4.664;2023-04-30T02:24:23;78006.91;;;-143.36;nan
39209;BME280;24929;51.982;4.664;2023-04-30T02:26:48;78014.94;;;-143.36;nan
39209;BME280;24929;51.982;4.664;2023-04-30T02:29:13;78031.00;;;-143.36;nan
39209;BME280;24929;51.982;4.664;2023-04-30T02:31:39;78012.94;;;-143.36;nan
39209;BME280;24929;51.982;4.664;2023-04-30T02:34:04;78014.94;;;-143.36;nan
39209;BME280;24929;51.982;4.664;2023-04-30T02:36:30;78033.00;;;-143.36;nan
39209;BME280;24929;51.982;4.664;2023-04-30T02:39:00;78041.03;;;-143.36;nan
39209;BME280;24929;51.982;4.664;2023-04-30T02:41:25;78033.00;;;-143.36;nan
39209;BME280;24929;51.982;4.664;2023-04-30T02:43:51;78041.03;;;-143.36;nan
39209;BME280;24929;51.982;4.664;2023-04-30T02:46:16;78063.13;;;-143.36;nan
39209;BME280;24929;51.982;4.664;2023-04-30T02:48:43;78037.03;;;-143.36;nan
39209;BME280;24929;51.982;4.664;2023-04-30T02:51:08;78053.09;;;-143.36;nan
39209;BME280;24929;51.982;4.664;2023-04-30T02:53:33;78061.13;;;-143.36;nan
39209;BME280;24929;51.982;4.664;2023-04-30T02:55:59;78047.06;;;-143.36;nan
39209;BME280;24929;51.982;4.664;2023-04-30T02:58:24;78051.06;;;-143.36;nan
39209;BME280;24929;51.982;4.664;2023-04-30T03:00:50;78045.06;;;-143.36;nan
39209;BME280;24929;51.982;4.664;2023-04-30T03:03:16;78035.03;;;-143.36;nan
39209;BME280;24929;51.982;4.664;2023-04-30T03:05:41;78069.16;;;-143.36;nan
39209;BME280;24929;51.982;4.664;2023-04-30T03:08:06;78059.09;;;-143.36;nan
39209;BME280;24929;51.982;4.664;2023-04-30T03:10:32;78079.19;;;-143.36;nan
39209;BME280;24929;51.982;4.664;2023-04-30T03:12:57;78053.09;;;-143.36;nan
39209;BME280;24929;51.982;4.664;2023-04-30T03:15:22;78059.09;;;-143.36;nan
39209;BME280;24929;51.982;4.664;2023-04-30T03:17:48;78069.16;;;-143.36;nan
39209;BME280;24929;51.982;4.664;2023-04-30T03:20:13;78057.09;;;-143.36;nan
39209;BME280;24929;51.982;4.664;2023-04-30T03:22:38;78049.06;;;-143.36;nan
39209;BME280;24929;51.982;4.664;2023-04-30T03:25:04;78039.03;;;-143.36;nan
39209;BME280;24929;51.982;4.664;2023-04-30T03:27:29;78047.06;;;-143.36;nan
39209;BME280;24929;51.982;4.664;2023-04-30T03:29:55;78045.06;;;-143.36;nan
39209;BME280;24929;51.982;4.664;2023-04-30T03:32:20;78041.03;;;-143.36;nan
39209;BME280;24929;51.982;4.664;2023-04-30T03:34:46;78049.06;;;-143.36;nan
39209;BME280;24929;51.982;4.664;2023-04-30T03:37:11;78053.09;;;-143.36;nan
39209;BME280;24929;51.982;4.664;2023-04-30T03:39:36;78069.16;;;-143.36;nan
39209;BME280;24929;51.982;4.664;2023-04-30T03:42:02;78069.16;;;-143.36;nan
39209;BME280;24929;51.982;4.664;2023-04-30T03:44:27;78067.13;;;-143.36;nan
39209;BME280;24929;51.982;4.664;2023-04-30T03:46:52;78091.22;;;-143.36;nan
39209;BME280;24929;51.982;4.664;2023-04-30T03:49:18;78079.19;;;-143.36;nan
39209;BME280;24929;51.982;4.664;2023-04-30T03:51:43;78083.19;;;-143.36;nan
39209;BME280;24929;51.982;4.664;2023-04-30T03:54:09;78075.16;;;-143.36;nan
39209;BME280;24929;51.982;4.664;2023-04-30T03:56:35;78043.03;;;-143.36;nan
39209;BME280;24929;51.982;4.664;2023-04-30T03:59:00;78051.06;;;-143.36;nan
39209;BME280;24929;51.982;4.664;2023-04-30T04:01:26;78039.03;;;-143.36;nan
39209;BME280;24929;51.982;4.664;2023-04-30T04:03:52;78041.03;;;-143.36;nan
39209;BME280;24929;51.982;4.664;2023-04-30T04:06:18;78031.00;;;-143.36;nan
39209;BME280;24929;51.982;4.664;2023-04-30T04:08:43;78043.03;;;-143.36;nan
39209;BME280;24929;51.982;4.664;2023-04-30T04:11:09;78045.06;;;-143.36;nan
39209;BME280;24929;51.982;4.664;2023-04-30T04:13:35;78051.06;;;-143.36;nan
39209;BME280;24929;51.982;4.664;2023-04-30T04:16:00;78035.03;;;-143.36;nan
39209;BME280;24929;51.982;4.664;2023-04-30T04:18:25;78055.09;;;-143.36;nan
39209;BME280;24929;51.982;4.664;2023-04-30T04:20:50;78053.09;;;-143.36;nan
39209;BME280;24929;51.982;4.664;2023-04-30T04:23:16;78069.16;;;-143.36;nan
39209;BME280;24929;51.982;4.664;2023-04-30T04:25:41;78067.13;;;-143.36;nan
39209;BME280;24929;51.982;4.664;2023-04-30T04:28:08;78053.09;;;-143.36;nan
39209;BME280;24929;51.982;4.664;2023-04-30T04:30:34;78069.16;;;-143.36;nan
39209;BME280;24929;51.982;4.664;2023-04-30T04:33:00;78067.13;;;-143.36;nan
39209;BME280;24929;51.982;4.664;2023-04-30T04:35:26;78073.16;;;-143.36;nan
39209;BME280;24929;51.982;4.664;2023-04-30T04:37:51;78073.16;;;-143.36;nan
39209;BME280;24929;51.982;4.664;2023-04-30T04:40:16;78063.13;;;-143.36;nan
39209;BME280;24929;51.982;4.664;2023-04-30T04:42:42;78073.16;;;-143.36;nan
39209;BME280;24929;51.982;4.664;2023-04-30T04:45:08;78077.19;;;-143.36;nan
39209;BME280;24929;51.982;4.664;2023-04-30T04:47:34;78103.28;;;-143.36;nan
39209;BME280;24929;51.982;4.664;2023-04-30T04:49:59;78117.31;;;-143.36;nan
39209;BME280;24929;51.982;4.664;2023-04-30T04:52:25;78085.19;;;-143.36;nan
39209;BME280;24929;51.982;4.664;2023-04-30T04:54:50;78097.25;;;-143.36;nan
39209;BME280;24929;51.982;4.664;2023-04-30T04:57:15;78079.19;;;-143.36;nan
39209;BME280;24929;51.982;4.664;2023-04-30T04:59:41;78081.19;;;-143.36;nan
39209;BME280;24929;51.982;4.664;2023-04-30T05:02:06;78081.19;;;-143.36;nan
39209;BME280;24929;51.982;4.664;2023-04-30T05:04:31;78085.19;;;-143.36;nan
39209;BME280;24929;51.982;4.664;2023-04-30T05:06:57;78049.06;;;-143.36;nan
39209;BME280;24929;51.982;4.664;2023-04-30T05:09:22;78022.97;;;-143.36;nan
39209;BME280;24929;51.982;4.664;2023-04-30T05:11:47;78012.94;;;-143.36;nan
39209;BME280;24929;51.982;4.664;2023-04-30T05:14:13;77932.63;;;-143.36;nan
39209;BME280;24929;51.982;4.664;2023-04-30T05:16:39;77802.16;;;-143.36;nan
39209;BME280;24929;51.982;4.664;2023-04-30T05:19:04;77651.59;;;-143.36;nan
39209;BME280;24929;51.982;4.664;2023-04-30T05:21:29;77585.38;;;-143.36;nan
39209;BME280;24929;51.982;4.664;2023-04-30T05:23:56;77513.09;;;-143.36;nan
39209;BME280;24929;51.982;4.664;2023-04-30T05:26:21;77428.81;;;-143.36;nan
39209;BME280;24929;51.982;4.664;2023-04-30T05:28:48;77446.88;;;-143.36;nan
39209;BME280;24929;51.982;4.664;2023-04-30T05:31:15;77452.88;;;-143.36;nan
39209;BME280;24929;51.982;4.664;2023-04-30T05:33:40;77306.38;;;-143.36;nan
39209;BME280;24929;51.982;4.664;2023-04-30T05:36:06;77292.31;;;-143.36;nan
39209;BME280;24929;51.982;4.664;2023-04-30T05:38:31;77326.44;;;-143.36;nan
39209;BME280;24929;51.982;4.664;2023-04-30T05:40:57;77394.69;;;-143.36;nan
39209;BME280;24929;51.982;4.664;2023-04-30T05:43:22;77362.56;;;-143.36;nan
39209;BME280;24929;51.982;4.664;2023-04-30T05:45:47;77370.59;;;-143.36;nan
39209;BME280;24929;51.982;4.664;2023-04-30T05:48:13;77338.47;;;-143.36;nan
39209;BME280;24929;51.982;4.664;2023-04-30T05:50:38;77440.84;;;-143.36;nan
39209;BME280;24929;51.982;4.664;2023-04-30T05:53:03;77481.00;;;-143.36;nan
39209;BME280;24929;51.982;4.664;2023-04-30T05:55:29;77513.09;;;-143.36;nan
39209;BME280;24929;51.982;4.664;2023-04-30T05:57:55;77511.09;;;-143.36;nan
39209;BME280;24929;51.982;4.664;2023-04-30T06:00:20;77535.19;;;-143.36;nan
39209;BME280;24929;51.982;4.664;2023-04-30T06:02:46;77533.19;;;-143.36;nan
39209;BME280;24929;51.982;4.664;2023-04-30T06:05:11;77597.41;;;-143.36;nan
39209;BME280;24929;51.982;4.664;2023-04-30T06:07:37;77537.19;;;-143.36;nan
39209;BME280;24929;51.982;4.664;2023-04-30T06:10:02;77460.91;;;-143.36;nan
39209;BME280;24929;51.982;4.664;2023-04-30T06:12:28;77426.78;;;-143.36;nan
39209;BME280;24929;51.982;4.664;2023-04-30T06:14:54;77456.91;;;-143.36;nan
39209;BME280;24929;51.982;4.664;2023-04-30T06:17:19;77470.97;;;-143.36;nan
39209;BME280;24929;51.982;4.664;2023-04-30T06:19:44;77519.13;;;-143.36;nan
39209;BME280;24929;51.982;4.664;2023-04-30T06:22:10;77523.16;;;-143.36;nan
39209;BME280;24929;51.982;4.664;2023-04-30T06:24:35;77541.22;;;-143.36;nan
39209;BME280;24929;51.982;4.664;2023-04-30T06:27:01;77501.06;;;-143.36;nan
39209;BME280;24929;51.982;4.664;2023-04-30T06:29:26;77499.06;;;-143.36;nan
39209;BME280;24929;51.982;4.664;2023-04-30T06:31:52;77503.06;;;-143.36;nan
39209;BME280;24929;51.982;4.664;2023-04-30T06:34:18;77483.00;;;-143.36;nan
39209;BME280;24929;51.982;4.664;2023-04-30T06:36:43;77464.94;;;-143.36;nan
39209;BME280;24929;51.982;4.664;2023-04-30T06:39:09;77495.03;;;-143.36;nan
39209;BME280;24929;51.982;4.664;2023-04-30T06:41:34;77470.97;;;-143.36;nan
39209;BME280;24929;51.982;4.664;2023-04-30T06:43:59;77444.88;;;-143.36;nan
39209;BME280;24929;51.982;4.664;2023-04-30T06:46:25;77481.00;;;-143.36;nan
39209;BME280;24929;51.982;4.664;2023-04-30T06:48:50;77452.88;;;-143.36;nan
39209;BME280;24929;51.982;4.664;2023-04-30T06:51:16;77481.00;;;-143.36;nan
39209;BME280;24929;51.982;4.664;2023-04-30T06:53:41;77487.00;;;-143.36;nan
39209;BME280;24929;51.982;4.664;2023-04-30T06:56:07;77497.06;;;-143.36;nan
39209;BME280;24929;51.982;4.664;2023-04-30T06:58:32;77444.88;;;-143.36;nan
39209;BME280;24929;51.982;4.664;2023-04-30T07:00:57;77372.59;;;-143.36;nan
39209;BME280;24929;51.982;4.664;2023-04-30T07:06:44;77262.22;;;-143.36;nan
39209;BME280;24929;51.982;4.664;2023-04-30T07:09:10;77240.13;;;-143.36;nan
39209;BME280;24929;51.982;4.664;2023-04-30T07:11:37;77232.09;;;-143.36;nan
39209;BME280;24929;51.982;4.664;2023-04-30T07:14:02;77250.16;;;-143.36;nan
39209;BME280;24929;51.982;4.664;2023-04-30T07:16:28;77185.94;;;-143.36;nan
39209;BME280;24929;51.982;4.664;2023-04-30T07:18:53;77137.78;;;-143.36;nan
39209;BME280;24929;51.982;4.664;2023-04-30T07:21:18;77145.81;;;-143.36;nan
39209;BME280;24929;51.982;4.664;2023-04-30T07:23:44;77141.78;;;-143.36;nan
39209;BME280;24929;51.982;4.664;2023-04-30T07:26:09;77025.38;;;-143.36;nan
39209;BME280;24929;51.982;4.664;2023-04-30T07:28:35;77031.41;;;-143.36;nan
39209;BME280;24929;51.982;4.664;2023-04-30T07:31:00;76995.28;;;-143.36;nan
39209;BME280;24929;51.982;4.664;2023-04-30T07:33:26;77013.34;;;-143.36;nan
39209;BME280;24929;51.982;4.664;2023-04-30T07:35:51;77019.38;;;-143.36;nan
39209;BME280;24929;51.982;4.664;2023-04-30T07:38:17;76955.13;;;-143.36;nan
39209;BME280;24929;51.982;4.664;2023-04-30T07:40:43;76927.03;;;-143.36;nan
39209;BME280;24929;51.982;4.664;2023-04-30T07:43:08;76892.94;;;-143.36;nan
39209;BME280;24929;51.982;4.664;2023-04-30T07:45:35;76858.81;;;-143.36;nan
39209;BME280;24929;51.982;4.664;2023-04-30T07:48:00;76826.69;;;-143.36;nan
39209;BME280;24929;51.982;4.664;2023-04-30T07:50:26;76798.59;;;-143.36;nan
39209;BME280;24929;51.982;4.664;2023-04-30T07:52:53;76814.66;;;-143.36;nan
39209;BME280;24929;51.982;4.664;2023-04-30T07:55:19;76822.69;;;-143.36;nan
39209;BME280;24929;51.982;4.664;2023-04-30T07:57:44;76782.53;;;-143.36;nan
39209;BME280;24929;51.982;4.664;2023-04-30T08:00:10;76776.53;;;-143.36;nan
39209;BME280;24929;51.982;4.664;2023-04-30T08:15:38;76690.22;;;-143.36;nan
39209;BME280;24929;51.982;4.664;2023-04-30T08:18:04;76746.44;;;-143.36;nan
39209;BME280;24929;51.982;4.664;2023-04-30T08:20:31;76730.38;;;-143.36;nan
39209;BME280;24929;51.982;4.664;2023-04-30T08:22:56;76776.53;;;-143.36;nan
39209;BME280;24929;51.982;4.664;2023-04-30T08:25:22;76700.28;;;-143.36;nan
39209;BME280;24929;51.982;4.664;2023-04-30T08:27:47;76772.50;;;-143.36;nan
39209;BME280;24929;51.982;4.664;2023-04-30T08:30:12;76824.69;;;-143.36;nan
39209;BME280;24929;51.982;4.664;2023-04-30T08:32:38;76784.56;;;-143.36;nan
39209;BME280;24929;51.982;4.664;2023-04-30T08:35:04;76726.34;;;-143.36;nan
39209;BME280;24929;51.982;4.664;2023-04-30T08:37:29;76826.69;;;-143.36;nan
39209;BME280;24929;51.982;4.664;2023-04-30T08:39:55;76822.69;;;-143.36;nan
39209;BME280;24929;51.982;4.664;2023-04-30T08:42:24;76788.56;;;-143.36;nan
39209;BME280;24929;51.982;4.664;2023-04-30T08:44:50;76838.75;;;-143.36;nan
39209;BME280;24929;51.982;4.664;2023-04-30T08:47:15;76826.69;;;-143.36;nan
39209;BME280;24929;51.982;4.664;2023-04-30T08:49:42;76836.72;;;-143.36;nan
39209;BME280;24929;51.982;4.664;2023-04-30T08:52:08;76742.41;;;-143.36;nan
39209;BME280;24929;51.982;4.664;2023-04-30T08:54:35;76776.53;;;-143.36;nan
39209;BME280;24929;51.982;4.664;2023-04-30T08:57:00;76818.66;;;-143.36;nan
39209;BME280;24929;51.982;4.664;2023-04-30T09:08:49;76788.56;;;-143.36;nan
39209;BME280;24929;51.982;4.664;2023-04-30T09:11:29;76746.44;;;-143.36;nan
39209;BME280;24929;51.982;4.664;2023-04-30T09:13:58;76768.50;;;-143.36;nan
39209;BME280;24929;51.982;4.664;2023-04-30T09:16:25;76794.59;;;-143.36;nan
39209;BME280;24929;51.982;4.664;2023-04-30T09:18:51;76834.72;;;-143.36;nan
39209;BME280;24929;51.982;4.664;2023-04-30T09:21:30;76850.78;;;-143.36;nan
39209;BME280;24929;51.982;4.664;2023-04-30T09:23:57;76856.81;;;-143.36;nan
39209;BME280;24929;51.982;4.664;2023-04-30T09:26:30;76798.59;;;-143.36;nan
39209;BME280;24929;51.982;4.664;2023-04-30T09:28:57;76896.94;;;-143.36;nan
39209;BME280;24929;51.982;4.664;2023-04-30T09:31:23;76866.84;;;-143.36;nan
39209;BME280;24929;51.982;4.664;2023-04-30T09:33:49;76947.13;;;-143.36;nan
39209;BME280;24929;51.982;4.664;2023-04-30T09:36:15;76856.81;;;-143.36;nan
39209;BME280;24929;51.982;4.664;2023-04-30T09:38:41;76818.66;;;-143.36;nan
39209;BME280;24929;51.982;4.664;2023-04-30T09:41:23;76786.56;;;-143.36;nan
39209;BME280;24929;51.982;4.664;2023-04-30T09:43:49;76852.78;;;-143.36;nan
39209;BME280;24929;51.982;4.664;2023-04-30T09:46:17;76923.03;;;-143.36;nan
39209;BME280;24929;51.982;4.664;2023-04-30T09:48:43;76945.09;;;-143.36;nan
39209;BME280;24929;51.982;4.664;2023-04-30T09:51:09;76884.91;;;-143.36;nan
39209;BME280;24929;51.982;4.664;2023-04-30T09:53:40;76820.69;;;-143.36;nan
39209;BME280;24929;51.982;4.664;2023-04-30T10:02:57;76842.75;;;-143.36;nan
39209;BME280;24929;51.982;4.664;2023-04-30T10:05:47;76834.72;;;-143.36;nan
39209;BME280;24929;51.982;4.664;2023-04-30T10:10:44;76774.53;;;-143.36;nan
39209;BME280;24929;51.982;4.664;2023-04-30T10:13:14;76804.63;;;-143.36;nan
39209;BME280;24929;51.982;4.664;2023-04-30T10:15:46;76772.50;;;-143.36;nan
39209;BME280;24929;51.982;4.664;2023-04-30T10:18:18;76726.34;;;-143.36;nan
39209;BME280;24929;51.982;4.664;2023-04-30T10:20:47;76698.25;;;-143.36;nan
39209;BME280;24929;51.982;4.664;2023-04-30T10:23:14;76718.31;;;-143.36;nan
39209;BME280;24929;51.982;4.664;2023-04-30T10:25:40;76710.31;;;-143.36;nan
39209;BME280;24929;51.982;4.664;2023-04-30T10:28:08;76740.41;;;-143.36;nan
39209;BME280;24929;51.982;4.664;2023-04-30T10:30:34;76734.38;;;-143.36;nan
39209;BME280;24929;51.982;4.664;2023-04-30T10:35:58;76708.28;;;-143.36;nan
39209;BME280;24929;51.982;4.664;2023-04-30T10:38:26;76690.22;;;-143.36;nan
39209;BME280;24929;51.982;4.664;2023-04-30T10:40:56;76714.31;;;-143.36;nan
39209;BME280;24929;51.982;4.664;2023-04-30T10:43:26;76776.53;;;-143.36;nan
39209;BME280;24929;51.982;4.664;2023-04-30T10:45:51;76738.41;;;-143.36;nan
39209;BME280;24929;51.982;4.664;2023-04-30T10:48:21;76722.34;;;-143.36;nan
39209;BME280;24929;51.982;4.664;2023-04-30T10:50:52;76786.56;;;-143.36;nan
39209;BME280;24929;51.982;4.664;2023-04-30T10:53:19;76768.50;;;-143.36;nan
39209;BME280;24929;51.982;4.664;2023-04-30T10:55:59;76678.19;;;-143.36;nan
39209;BME280;24929;51.982;4.664;2023-04-30T10:58:31;76630.03;;;-143.36;nan
39209;BME280;24929;51.982;4.664;2023-04-30T11:01:13;76620.00;;;-143.36;nan
39209;BME280;24929;51.982;4.664;2023-04-30T11:04:02;76656.13;;;-143.36;nan
39209;BME280;24929;51.982;4.664;2023-04-30T11:06:48;76599.94;;;-143.36;nan
39209;BME280;24929;51.982;4.664;2023-04-30T11:09:14;76624.00;;;-143.36;nan
39209;BME280;24929;51.982;4.664;2023-04-30T11:11:43;76591.91;;;-143.36;nan
39209;BME280;24929;51.982;4.664;2023-04-30T11:14:10;76599.94;;;-143.36;nan
39209;BME280;24929;51.982;4.664;2023-04-30T11:16:35;76658.13;;;-143.36;nan
39209;BME280;24929;51.982;4.664;2023-04-30T11:19:12;76615.97;;;-143.36;nan
39209;BME280;24929;51.982;4.664;2023-04-30T11:21:41;76611.97;;;-143.36;nan
39209;BME280;24929;51.982;4.664;2023-04-30T11:24:48;76553.78;;;-143.36;nan
39209;BME280;24929;51.982;4.664;2023-04-30T11:27:19;76563.81;;;-143.36;nan
39209;BME280;24929;51.982;4.664;2023-04-30T11:29:44;76587.88;;;-143.36;nan
39209;BME280;24929;51.982;4.664;2023-04-30T11:32:11;76531.69;;;-143.36;nan
39209;BME280;24929;51.982;4.664;2023-04-30T11:34:37;76495.59;;;-143.36;nan
39209;BME280;24929;51.982;4.664;2023-04-30T11:37:02;76579.88;;;-143.36;nan
39209;BME280;24929;51.982;4.664;2023-04-30T11:39:28;76511.63;;;-143.36;nan
39209;BME280;24929;51.982;4.664;2023-04-30T11:41:56;76577.84;;;-143.36;nan
39209;BME280;24929;51.982;4.664;2023-04-30T11:44:25;76513.63;;;-143.36;nan
39209;BME280;24929;51.982;4.664;2023-04-30T11:46:51;76499.59;;;-143.36;nan
39209;BME280;24929;51.982;4.664;2023-04-30T11:49:19;76457.44;;;-143.36;nan
39209;BME280;24929;51.982;4.664;2023-04-30T11:51:48;76397.25;;;-143.36;nan
39209;BME280;24929;51.982;4.664;2023-04-30T11:54:14;76465.47;;;-143.36;nan
39209;BME280;24929;51.982;4.664;2023-04-30T11:56:45;76375.19;;;-143.36;nan
39209;BME280;24929;51.982;4.664;2023-04-30T11:59:14;76419.31;;;-143.36;nan
39209;BME280;24929;51.982;4.664;2023-04-30T12:01:40;76451.44;;;-143.36;nan
39209;BME280;24929;51.982;4.664;2023-04-30T12:04:06;76453.44;;;-143.36;nan
39209;BME280;24929;51.982;4.664;2023-04-30T12:06:33;76441.41;;;-143.36;nan
39209;BME280;24929;51.982;4.664;2023-04-30T12:08:59;76461.47;;;-143.36;nan
39209;BME280;24929;51.982;4.664;2023-04-30T12:11:30;76415.31;;;-143.36;nan
39209;BME280;24929;51.982;4.664;2023-04-30T12:16:23;76495.59;;;-143.36;nan
39209;BME280;24929;51.982;4.664;2023-04-30T12:18:49;76517.66;;;-143.36;nan
39209;BME280;24929;51.982;4.664;2023-04-30T12:21:17;76477.53;;;-143.36;nan
39209;BME280;24929;51.982;4.664;2023-04-30T12:23:43;76497.59;;;-143.36;nan
39209;BME280;24929;51.982;4.664;2023-04-30T12:26:09;76449.44;;;-143.36;nan
39209;BME280;24929;51.982;4.664;2023-04-30T12:28:35;76455.44;;;-143.36;nan
39209;BME280;24929;51.982;4.664;2023-04-30T12:31:00;76391.22;;;-143.36;nan
39209;BME280;24929;51.982;4.664;2023-04-30T12:33:30;76314.97;;;-143.36;nan
39209;BME280;24929;51.982;4.664;2023-04-30T12:35:56;76371.16;;;-143.36;nan
39209;BME280;24929;51.982;4.664;2023-04-30T12:38:24;76365.16;;;-143.36;nan
39209;BME280;24929;51.982;4.664;2023-04-30T12:40:50;76381.19;;;-143.36;nan
39209;BME280;24929;51.982;4.664;2023-04-30T12:43:16;76431.38;;;-143.36;nan
39209;BME280;24929;51.982;4.664;2023-04-30T12:48:12;76391.22;;;-143.36;nan
39209;BME280;24929;51.982;4.664;2023-04-30T12:50:37;76347.09;;;-143.36;nan
39209;BME280;24929;51.982;4.664;2023-04-30T12:53:06;76300.94;;;-143.36;nan
39209;BME280;24929;51.982;4.664;2023-04-30T12:55:32;76304.94;;;-143.36;nan
39209;BME280;24929;51.982;4.664;2023-04-30T12:58:07;76290.91;;;-143.36;nan
39209;BME280;24929;51.982;4.664;2023-04-30T13:03:08;76345.06;;;-143.36;nan
39209;BME280;24929;51.982;4.664;2023-04-30T13:05:34;76333.03;;;-143.36;nan
39209;BME280;24929;51.982;4.664;2023-04-30T13:08:02;76304.94;;;-143.36;nan
39209;BME280;24929;51.982;4.664;2023-04-30T13:10:31;76357.13;;;-143.36;nan
39209;BME280;24929;51.982;4.664;2023-04-30T13:12:57;76365.16;;;-143.36;nan
39209;BME280;24929;51.982;4.664;2023-04-30T13:15:22;76367.16;;;-143.36;nan
39209;BME280;24929;51.982;4.664;2023-04-30T13:17:47;76333.03;;;-143.36;nan
39209;BME280;24929;51.982;4.664;2023-04-30T13:20:14;76268.81;;;-143.36;nan
39209;BME280;24929;51.982;4.664;2023-04-30T13:22:40;76280.88;;;-143.36;nan
39209;BME280;24929;51.982;4.664;2023-04-30T13:25:06;76308.97;;;-143.36;nan
39209;BME280;24929;51.982;4.664;2023-04-30T13:27:31;76319.00;;;-143.36;nan
39209;BME280;24929;51.982;4.664;2023-04-30T13:29:58;76282.88;;;-143.36;nan
39209;BME280;24929;51.982;4.664;2023-04-30T13:32:23;76218.66;;;-143.36;nan
39209;BME280;24929;51.982;4.664;2023-04-30T13:34:48;76158.47;;;-143.36;nan
39209;BME280;24929;51.982;4.664;2023-04-30T13:37:16;76160.47;;;-143.36;nan
39209;BME280;24929;51.982;4.664;2023-04-30T13:39:41;76154.44;;;-143.36;nan
39209;BME280;24929;51.982;4.664;2023-04-30T13:42:09;76146.44;;;-143.36;nan
39209;BME280;24929;51.982;4.664;2023-04-30T13:44:35;76160.47;;;-143.36;nan
39209;BME280;24929;51.982;4.664;2023-04-30T13:47:00;76118.34;;;-143.36;nan
39209;BME280;24929;51.982;4.664;2023-04-30T13:49:26;76212.66;;;-143.36;nan
39209;BME280;24929;51.982;4.664;2023-04-30T13:51:51;76214.66;;;-143.36;nan
39209;BME280;24929;51.982;4.664;2023-04-30T13:54:16;76214.66;;;-143.36;nan
39209;BME280;24929;51.982;4.664;2023-04-30T13:56:42;76206.63;;;-143.36;nan
39209;BME280;24929;51.982;4.664;2023-04-30T13:59:07;76182.53;;;-143.36;nan